Overview Statistics Trail Chart Weather Telemetry Raw packets
 

This is the latest recevied weather packets stored in our database for station/object KF7SOJ. If no packets are shown the sender has not sent any weather packets the latest 10 day(s).

<< 84 85 86 87 88 89 90 >>
Time Temp. Humidity Pressure Rain* Wind** Luminosity Snow
1787997196 20° C 63% 929.1 hPa 0 mm - 0 W/m² -
1787996896 18.89° C 65% 929.2 hPa 0 mm - 0 W/m² -
1787996591 18.33° C 67% 929 hPa 0 mm - 0 W/m² -
1787996287 17.78° C 69% 928.9 hPa 0 mm - 0 W/m² -
1787995986 17.78° C 70% 929 hPa 0 mm - 0 W/m² -
1787995681 17.78° C 70% 928.9 hPa 0 mm - 0 W/m² -
1787995376 17.78° C 71% 929.1 hPa 0 mm - 0 W/m² -
1787995072 17.78° C 70% 929 hPa 0 mm - 0 W/m² -
1787994767 18.33° C 68% 929 hPa 0 mm - 0 W/m² -
1787994464 18.89° C 65% 929.1 hPa 0 mm - 0 W/m² -
1787994160 18.89° C 64% 929 hPa 0 mm - 0 W/m² -
1787993858 18.89° C 64% 928.9 hPa 0 mm - 0 W/m² -
1787993558 18.33° C 65% 929 hPa 0 mm - 0 W/m² -
1787993253 18.33° C 65% 929 hPa 0 mm - 0 W/m² -
1787992953 18.89° C 64% 928.9 hPa 0 mm - 0 W/m² -
1787992648 18.89° C 63% 929 hPa 0 mm - 0 W/m² -
1787992343 18.89° C 63% 929 hPa 0 mm - 0 W/m² -
1787992042 18.89° C 62% 929 hPa 0 mm - 0 W/m² -
1787991741 19.44° C 61% 929 hPa 0 mm - 0 W/m² -
1787991437 20.56° C 59% 929 hPa 0 mm - 0 W/m² -
1787991133 20.56° C 58% 929 hPa 0 mm - 0 W/m² -
1787990827 20° C 59% 929.1 hPa 0 mm - 0 W/m² -
1787990523 20° C 60% 929.3 hPa 0 mm - 0 W/m² -
1787990220 20° C 59% 929.3 hPa 0 mm - 0 W/m² -
1787989916 20° C 59% 929.3 hPa 0 mm - 0 W/m² -

* Rain latest hour (hover to see other rain measurements)
** Current wind speed in m/s (hover to see current wind gust speed)